Gnv Atlas — IBUH — position and weather

sailwx.info

Track history (hours):
 
Tides and Currents Weather Stations Pressure Air Temp Water Temp Dewpoint Dewpoint Depression Visibility Wind Speed Wind Dir Waves Ship Positions

Gnv Atlas

Last reported at 2018-Apr-20 04:46 UTC. Time now 2018-Apr-20 07:06 UTC.
Position N 37°45' W 000°21'.

Length 162 m; draft 6.2 m.

Type: Passenger vessel. MMSI: 247163100.

Date/timePositionNaut miles runAvg speedWind from/ knotsBaromVisibWave heightAir tempDewpointWater temp
2018-Apr-20 04:46N 37°45' W 000°21'517.4
2018-Apr-20 04:30N 37°41' W 000°24'917.4
2018-Apr-20 04:01N 37°34' W 000°31'1017.4
2018-Apr-20 03:26N 37°26' W 000°38'717.1
2018-Apr-20 03:00N 37°21' W 000°45'816.5
2018-Apr-20 02:30N 37°15' W 000°52'17 0.7
2018-Apr-19 02:56N 37°03' W 001°07'918.4
2018-Apr-19 02:25N 37°11' W 001°01'818.1
2018-Apr-19 01:58N 37°17' W 000°54'817.9
2018-Apr-19 01:30N 37°23' W 000°46'917.7
2018-Apr-19 01:00N 37°30' W 000°39'917.7
2018-Apr-19 00:30N 37°36' W 000°32'918.2
2018-Apr-19 00:00N 37°44' W 000°25'918.0
2018-Apr-18 23:30N 37°51' W 000°19'917.8
2018-Apr-18 23:00N 37°59' W 000°13'917.8
2018-Apr-18 22:30N 38°06' W 000°07'1718.0
2018-Apr-18 21:34N 38°21' E 000°04'317.6
2018-Apr-18 21:24N 38°23' E 000°06'717.6
2018-Apr-18 21:00N 38°29' E 000°12'2517.7
2018-Apr-18 19:35N 38°50' E 000°28'217.5
2018-Apr-18 19:29N 38°52' E 000°29'10617.9
2018-Apr-18 13:33N 40°26' E 001°35'118.0
2018-Apr-18 13:29N 40°27' E 001°35'1017.9
2018-Apr-18 12:55N 40°36' E 001°41'717.9
2018-Apr-18 12:30N 40°42' E 001°46'917.8
2018-Apr-18 12:00N 40°50' E 001°51'918.4
2018-Apr-18 11:30N 40°59' E 001°56'918.3
2018-Apr-18 11:01N 41°06' E 002°03'918.0
2018-Apr-18 10:30N 41°14' E 002°09'714.4
2018-Apr-18 10:00N 41°21' E 002°10'1 0.4
2018-Apr-18 08:05N 41°22' E 002°11'0 0.0
2018-Apr-18 06:47N 41°22' E 002°11'0 0.0
2018-Apr-18 06:23N 41°22' E 002°11'0 0.0
2018-Apr-18 05:11N 41°22' E 002°11'0 0.0
2018-Apr-18 04:56N 41°22' E 002°11'0 0.0
2018-Apr-18 04:26N 41°22' E 002°11'0 0.1
2018-Apr-18 04:00N 41°22' E 002°11'1 1.8
2018-Apr-18 03:30N 41°21' E 002°10'5 9.3
2018-Apr-18 03:01N 41°17' E 002°14'918.2
2018-Apr-18 02:30N 41°21' E 002°24'13416.6
2018-Apr-17 18:27N 43°21' E 003°44'3 6.2
2018-Apr-17 17:58N 43°24' E 003°42'0 0.0
2018-Apr-17 16:07N 43°24' E 003°42'0 0.0
2018-Apr-17 15:22N 43°24' E 003°42'0 0.0
2018-Apr-17 14:58N 43°24' E 003°42'0 0.0
2018-Apr-17 14:25N 43°24' E 003°42'0 0.0
2018-Apr-17 13:58N 43°24' E 003°42'0 0.0
2018-Apr-17 13:19N 43°24' E 003°42'0 0.0
2018-Apr-17 12:52N 43°24' E 003°42'0 0.0
2018-Apr-17 12:28N 43°24' E 003°42'0 0.0
2018-Apr-17 11:58N 43°24' E 003°42'  
2018-Apr-14 20:32N 41°22' E 002°11'0 0.0
2018-Apr-14 20:30N 41°22' E 002°11'1 3.0
2018-Apr-14 20:00N 41°21' E 002°12'612.1
2018-Apr-14 19:31N 41°15' E 002°11'816.6
2018-Apr-14 19:00N 41°08' E 002°06'816.5
2018-Apr-14 18:30N 41°00' E 002°01'22216.8
2018-Apr-14 05:19N 37°47' W 000°19'618.3
2018-Apr-14 05:00N 37°42' W 000°23'918.0
2018-Apr-14 04:30N 37°35' W 000°30'1117.8
2018-Apr-14 03:53N 37°26' W 000°39'718.0
2018-Apr-14 03:30N 37°21' W 000°44'918.1
2018-Apr-14 02:59N 37°14' W 000°52'18 0.8
2018-Apr-13 05:24N 37°02' W 001°09'616.6
2018-Apr-13 05:00N 37°07' W 001°03'816.3
2018-Apr-13 04:30N 37°13' W 000°57'815.9
2018-Apr-13 03:59N 37°20' W 000°50'715.6
2018-Apr-13 03:30N 37°25' W 000°44'815.3
2018-Apr-13 03:00N 37°31' W 000°37'815.8
2018-Apr-13 02:30N 37°37' W 000°31'815.8
2018-Apr-13 02:00N 37°44' W 000°26'1216.3
2018-Apr-13 01:16N 37°54' W 000°17'416.6
2018-Apr-13 01:00N 37°57' W 000°14'916.6
2018-Apr-13 00:26N 38°05' W 000°08'19316.7
2018-Apr-12 12:53N 40°54' E 001°54'717.5
2018-Apr-12 12:30N 40°60' E 001°58'917.6
2018-Apr-12 12:00N 41°08' E 002°04'917.3
2018-Apr-12 11:30N 41°15' E 002°10'712.9
2018-Apr-12 11:00N 41°22' E 002°11'0 0.3
2018-Apr-12 10:08N 41°22' E 002°10'0 0.0
2018-Apr-12 09:44N 41°22' E 002°10'0 0.0
2018-Apr-12 08:35N 41°22' E 002°10'0 0.0
2018-Apr-12 08:29N 41°22' E 002°10'0 0.0
2018-Apr-12 07:59N 41°22' E 002°10'0 0.0
2018-Apr-12 07:29N 41°22' E 002°10'0 0.0
2018-Apr-12 06:59N 41°22' E 002°10'0 0.0
2018-Apr-12 06:30N 41°22' E 002°10'1 1.0
2018-Apr-12 06:01N 41°21' E 002°10'15 0.5
2018-Apr-11 01:37N 41°24' E 002°30'216.4
2018-Apr-11 01:30N 41°23' E 002°28'816.3
2018-Apr-11 01:01N 41°21' E 002°18'510.8
2018-Apr-11 00:30N 41°22' E 002°11'0 0.0
2018-Apr-10 19:11N 41°22' E 002°11'0 0.0
2018-Apr-10 18:59N 41°22' E 002°11'0 0.0
2018-Apr-10 18:30N 41°22' E 002°11'1 1.7
2018-Apr-10 18:00N 41°21' E 002°11'713.2
2018-Apr-10 17:30N 41°15' E 002°11'817.0
2018-Apr-10 17:01N 41°07' E 002°06'  
Track history (hours):
 
Tides and Currents Weather Stations Pressure Air Temp Water Temp Dewpoint Dewpoint Depression Visibility Wind Speed Wind Dir Waves Ship Positions

Gnv Atlas

Last reported at 2018-Apr-20 04:46 UTC. Time now 2018-Apr-20 07:06 UTC.
Position N 37°45' W 000°21'.

Length 162 m; draft 6.2 m.

Type: Passenger vessel. MMSI: 247163100.

Date/timePositionNaut miles runAvg speedWind from/ knotsBaromVisibWave heightAir tempDewpointWater temp
2018-Apr-20 04:46N 37°45' W 000°21'517.4
2018-Apr-20 04:30N 37°41' W 000°24'917.4
2018-Apr-20 04:01N 37°34' W 000°31'1017.4
2018-Apr-20 03:26N 37°26' W 000°38'717.1
2018-Apr-20 03:00N 37°21' W 000°45'816.5
2018-Apr-20 02:30N 37°15' W 000°52'17 0.7
2018-Apr-19 02:56N 37°03' W 001°07'918.4
2018-Apr-19 02:25N 37°11' W 001°01'818.1
2018-Apr-19 01:58N 37°17' W 000°54'817.9
2018-Apr-19 01:30N 37°23' W 000°46'917.7
2018-Apr-19 01:00N 37°30' W 000°39'917.7
2018-Apr-19 00:30N 37°36' W 000°32'918.2
2018-Apr-19 00:00N 37°44' W 000°25'918.0
2018-Apr-18 23:30N 37°51' W 000°19'917.8
2018-Apr-18 23:00N 37°59' W 000°13'917.8
2018-Apr-18 22:30N 38°06' W 000°07'1718.0
2018-Apr-18 21:34N 38°21' E 000°04'317.6
2018-Apr-18 21:24N 38°23' E 000°06'717.6
2018-Apr-18 21:00N 38°29' E 000°12'2517.7
2018-Apr-18 19:35N 38°50' E 000°28'217.5
2018-Apr-18 19:29N 38°52' E 000°29'10617.9
2018-Apr-18 13:33N 40°26' E 001°35'118.0
2018-Apr-18 13:29N 40°27' E 001°35'1017.9
2018-Apr-18 12:55N 40°36' E 001°41'717.9
2018-Apr-18 12:30N 40°42' E 001°46'917.8
2018-Apr-18 12:00N 40°50' E 001°51'918.4
2018-Apr-18 11:30N 40°59' E 001°56'918.3
2018-Apr-18 11:01N 41°06' E 002°03'918.0
2018-Apr-18 10:30N 41°14' E 002°09'714.4
2018-Apr-18 10:00N 41°21' E 002°10'1 0.4
2018-Apr-18 08:05N 41°22' E 002°11'0 0.0
2018-Apr-18 06:47N 41°22' E 002°11'0 0.0
2018-Apr-18 06:23N 41°22' E 002°11'0 0.0
2018-Apr-18 05:11N 41°22' E 002°11'0 0.0
2018-Apr-18 04:56N 41°22' E 002°11'0 0.0
2018-Apr-18 04:26N 41°22' E 002°11'0 0.1
2018-Apr-18 04:00N 41°22' E 002°11'1 1.8
2018-Apr-18 03:30N 41°21' E 002°10'5 9.3
2018-Apr-18 03:01N 41°17' E 002°14'918.2
2018-Apr-18 02:30N 41°21' E 002°24'13416.6
2018-Apr-17 18:27N 43°21' E 003°44'3 6.2
2018-Apr-17 17:58N 43°24' E 003°42'0 0.0
2018-Apr-17 16:07N 43°24' E 003°42'0 0.0
2018-Apr-17 15:22N 43°24' E 003°42'0 0.0
2018-Apr-17 14:58N 43°24' E 003°42'0 0.0
2018-Apr-17 14:25N 43°24' E 003°42'0 0.0
2018-Apr-17 13:58N 43°24' E 003°42'0 0.0
2018-Apr-17 13:19N 43°24' E 003°42'0 0.0
2018-Apr-17 12:52N 43°24' E 003°42'0 0.0
2018-Apr-17 12:28N 43°24' E 003°42'0 0.0
2018-Apr-17 11:58N 43°24' E 003°42'  
2018-Apr-14 20:32N 41°22' E 002°11'0 0.0
2018-Apr-14 20:30N 41°22' E 002°11'1 3.0
2018-Apr-14 20:00N 41°21' E 002°12'612.1
2018-Apr-14 19:31N 41°15' E 002°11'816.6
2018-Apr-14 19:00N 41°08' E 002°06'816.5
2018-Apr-14 18:30N 41°00' E 002°01'22216.8
2018-Apr-14 05:19N 37°47' W 000°19'618.3
2018-Apr-14 05:00N 37°42' W 000°23'918.0
2018-Apr-14 04:30N 37°35' W 000°30'1117.8
2018-Apr-14 03:53N 37°26' W 000°39'718.0
2018-Apr-14 03:30N 37°21' W 000°44'918.1
2018-Apr-14 02:59N 37°14' W 000°52'18 0.8
2018-Apr-13 05:24N 37°02' W 001°09'616.6
2018-Apr-13 05:00N 37°07' W 001°03'816.3
2018-Apr-13 04:30N 37°13' W 000°57'815.9
2018-Apr-13 03:59N 37°20' W 000°50'715.6
2018-Apr-13 03:30N 37°25' W 000°44'815.3
2018-Apr-13 03:00N 37°31' W 000°37'815.8
2018-Apr-13 02:30N 37°37' W 000°31'815.8
2018-Apr-13 02:00N 37°44' W 000°26'1216.3
2018-Apr-13 01:16N 37°54' W 000°17'416.6
2018-Apr-13 01:00N 37°57' W 000°14'916.6
2018-Apr-13 00:26N 38°05' W 000°08'19316.7
2018-Apr-12 12:53N 40°54' E 001°54'717.5
2018-Apr-12 12:30N 40°60' E 001°58'917.6
2018-Apr-12 12:00N 41°08' E 002°04'917.3
2018-Apr-12 11:30N 41°15' E 002°10'712.9
2018-Apr-12 11:00N 41°22' E 002°11'0 0.3
2018-Apr-12 10:08N 41°22' E 002°10'0 0.0
2018-Apr-12 09:44N 41°22' E 002°10'0 0.0
2018-Apr-12 08:35N 41°22' E 002°10'0 0.0
2018-Apr-12 08:29N 41°22' E 002°10'0 0.0
2018-Apr-12 07:59N 41°22' E 002°10'0 0.0
2018-Apr-12 07:29N 41°22' E 002°10'0 0.0
2018-Apr-12 06:59N 41°22' E 002°10'0 0.0
2018-Apr-12 06:30N 41°22' E 002°10'1 1.0
2018-Apr-12 06:01N 41°21' E 002°10'15 0.5
2018-Apr-11 01:37N 41°24' E 002°30'216.4
2018-Apr-11 01:30N 41°23' E 002°28'816.3
2018-Apr-11 01:01N 41°21' E 002°18'510.8
2018-Apr-11 00:30N 41°22' E 002°11'0 0.0
2018-Apr-10 19:11N 41°22' E 002°11'0 0.0
2018-Apr-10 18:59N 41°22' E 002°11'0 0.0
2018-Apr-10 18:30N 41°22' E 002°11'1 1.7
2018-Apr-10 18:00N 41°21' E 002°11'713.2
2018-Apr-10 17:30N 41°15' E 002°11'817.0
2018-Apr-10 17:01N 41°07' E 002°06'  

Dump ship's entire track history